sensor_id;sensor_type;location;lat;lon;timestamp;P1;durP1;ratioP1;P2;durP2;ratioP2
34072;SDS011;20346;52.702;16.886;2022-10-16T00:00:08;19.55;;;15.30;;
34072;SDS011;20346;52.702;16.886;2022-10-16T00:02:54;23.42;;;17.02;;
34072;SDS011;20346;52.702;16.886;2022-10-16T00:05:43;19.48;;;15.63;;
34072;SDS011;20346;52.702;16.886;2022-10-16T00:08:27;22.17;;;15.83;;
34072;SDS011;20346;52.702;16.886;2022-10-16T00:11:20;20.25;;;15.75;;
34072;SDS011;20346;52.702;16.886;2022-10-16T00:14:11;18.80;;;14.70;;
34072;SDS011;20346;52.702;16.886;2022-10-16T00:16:58;19.87;;;16.12;;
34072;SDS011;20346;52.702;16.886;2022-10-16T00:19:42;19.60;;;15.35;;
34072;SDS011;20346;52.702;16.886;2022-10-16T00:22:28;21.20;;;16.55;;
34072;SDS011;20346;52.702;16.886;2022-10-16T00:25:13;17.57;;;14.73;;
34072;SDS011;20346;52.702;16.886;2022-10-16T00:27:58;17.80;;;15.03;;
34072;SDS011;20346;52.702;16.886;2022-10-16T00:30:44;19.62;;;15.83;;
34072;SDS011;20346;52.702;16.886;2022-10-16T00:33:29;17.80;;;14.87;;
34072;SDS011;20346;52.702;16.886;2022-10-16T00:36:15;19.30;;;15.08;;
34072;SDS011;20346;52.702;16.886;2022-10-16T00:39:02;18.73;;;14.85;;
34072;SDS011;20346;52.702;16.886;2022-10-16T00:41:48;20.37;;;15.60;;
34072;SDS011;20346;52.702;16.886;2022-10-16T00:47:43;18.20;;;15.48;;
34072;SDS011;20346;52.702;16.886;2022-10-16T00:50:32;17.23;;;14.63;;
34072;SDS011;20346;52.702;16.886;2022-10-16T00:53:19;19.45;;;15.03;;
34072;SDS011;20346;52.702;16.886;2022-10-16T00:56:05;15.95;;;13.75;;
34072;SDS011;20346;52.702;16.886;2022-10-16T00:58:51;19.05;;;13.62;;
34072;SDS011;20346;52.702;16.886;2022-10-16T01:01:36;17.98;;;14.70;;
34072;SDS011;20346;52.702;16.886;2022-10-16T01:04:22;19.15;;;14.53;;
34072;SDS011;20346;52.702;16.886;2022-10-16T01:10:17;19.20;;;14.75;;
34072;SDS011;20346;52.702;16.886;2022-10-16T01:13:18;16.73;;;14.15;;
34072;SDS011;20346;52.702;16.886;2022-10-16T01:19:35;16.55;;;14.85;;
34072;SDS011;20346;52.702;16.886;2022-10-16T01:31:40;16.17;;;14.10;;
34072;SDS011;20346;52.702;16.886;2022-10-16T01:34:31;15.45;;;13.53;;
34072;SDS011;20346;52.702;16.886;2022-10-16T01:37:32;16.07;;;14.38;;
34072;SDS011;20346;52.702;16.886;2022-10-16T01:40:30;13.85;;;12.40;;
34072;SDS011;20346;52.702;16.886;2022-10-16T01:43:20;16.75;;;14.73;;
34072;SDS011;20346;52.702;16.886;2022-10-16T01:46:15;15.15;;;13.22;;
34072;SDS011;20346;52.702;16.886;2022-10-16T01:49:03;15.00;;;13.40;;
34072;SDS011;20346;52.702;16.886;2022-10-16T01:51:50;14.38;;;12.25;;
34072;SDS011;20346;52.702;16.886;2022-10-16T01:54:40;12.47;;;11.15;;
34072;SDS011;20346;52.702;16.886;2022-10-16T01:57:29;13.90;;;11.40;;
34072;SDS011;20346;52.702;16.886;2022-10-16T02:00:16;14.93;;;11.28;;
34072;SDS011;20346;52.702;16.886;2022-10-16T02:03:04;13.55;;;11.20;;
34072;SDS011;20346;52.702;16.886;2022-10-16T02:05:55;11.90;;;10.63;;
34072;SDS011;20346;52.702;16.886;2022-10-16T02:08:42;14.87;;;11.65;;
34072;SDS011;20346;52.702;16.886;2022-10-16T02:11:28;11.90;;;10.53;;
34072;SDS011;20346;52.702;16.886;2022-10-16T02:14:13;15.03;;;10.43;;
34072;SDS011;20346;52.702;16.886;2022-10-16T02:16:58;11.65;;;10.45;;
34072;SDS011;20346;52.702;16.886;2022-10-16T02:19:43;11.95;;;10.75;;
34072;SDS011;20346;52.702;16.886;2022-10-16T02:22:34;12.35;;;11.00;;
34072;SDS011;20346;52.702;16.886;2022-10-16T02:25:29;11.90;;;10.70;;
34072;SDS011;20346;52.702;16.886;2022-10-16T02:28:19;10.85;;;9.40;;
34072;SDS011;20346;52.702;16.886;2022-10-16T02:31:06;14.38;;;10.28;;
34072;SDS011;20346;52.702;16.886;2022-10-16T02:33:54;11.78;;;10.58;;
34072;SDS011;20346;52.702;16.886;2022-10-16T02:36:42;11.15;;;10.05;;
34072;SDS011;20346;52.702;16.886;2022-10-16T02:39:29;14.10;;;10.53;;
34072;SDS011;20346;52.702;16.886;2022-10-16T02:42:17;10.38;;;9.43;;
34072;SDS011;20346;52.702;16.886;2022-10-16T02:45:03;11.18;;;9.33;;
34072;SDS011;20346;52.702;16.886;2022-10-16T02:47:50;10.98;;;9.93;;
34072;SDS011;20346;52.702;16.886;2022-10-16T02:50:35;9.68;;;8.78;;
34072;SDS011;20346;52.702;16.886;2022-10-16T02:53:20;10.50;;;9.50;;
34072;SDS011;20346;52.702;16.886;2022-10-16T02:56:05;11.35;;;9.63;;
34072;SDS011;20346;52.702;16.886;2022-10-16T02:58:51;13.45;;;10.15;;
34072;SDS011;20346;52.702;16.886;2022-10-16T03:01:36;10.10;;;9.20;;
34072;SDS011;20346;52.702;16.886;2022-10-16T03:04:21;10.38;;;9.28;;
34072;SDS011;20346;52.702;16.886;2022-10-16T03:07:06;9.95;;;8.90;;
34072;SDS011;20346;52.702;16.886;2022-10-16T03:09:51;10.95;;;9.85;;
34072;SDS011;20346;52.702;16.886;2022-10-16T03:12:36;9.95;;;8.95;;
34072;SDS011;20346;52.702;16.886;2022-10-16T03:15:22;12.18;;;10.03;;
34072;SDS011;20346;52.702;16.886;2022-10-16T03:18:07;11.45;;;8.75;;
34072;SDS011;20346;52.702;16.886;2022-10-16T03:20:52;9.80;;;8.83;;
34072;SDS011;20346;52.702;16.886;2022-10-16T03:23:37;11.85;;;10.40;;
34072;SDS011;20346;52.702;16.886;2022-10-16T03:26:22;11.05;;;9.98;;
34072;SDS011;20346;52.702;16.886;2022-10-16T03:29:07;11.08;;;10.03;;
34072;SDS011;20346;52.702;16.886;2022-10-16T03:31:52;11.83;;;9.50;;
34072;SDS011;20346;52.702;16.886;2022-10-16T03:34:37;9.78;;;8.78;;
34072;SDS011;20346;52.702;16.886;2022-10-16T03:37:23;11.95;;;9.30;;
34072;SDS011;20346;52.702;16.886;2022-10-16T03:40:09;9.50;;;8.70;;
34072;SDS011;20346;52.702;16.886;2022-10-16T03:42:54;13.13;;;9.13;;
34072;SDS011;20346;52.702;16.886;2022-10-16T03:45:41;9.15;;;8.35;;
34072;SDS011;20346;52.702;16.886;2022-10-16T03:48:26;10.17;;;9.17;;
34072;SDS011;20346;52.702;16.886;2022-10-16T03:51:11;10.25;;;9.05;;
34072;SDS011;20346;52.702;16.886;2022-10-16T03:53:56;10.70;;;9.38;;
34072;SDS011;20346;52.702;16.886;2022-10-16T03:56:42;11.15;;;10.05;;
34072;SDS011;20346;52.702;16.886;2022-10-16T03:59:27;13.15;;;9.83;;
34072;SDS011;20346;52.702;16.886;2022-10-16T04:02:12;10.13;;;9.10;;
34072;SDS011;20346;52.702;16.886;2022-10-16T04:04:57;10.32;;;9.25;;
34072;SDS011;20346;52.702;16.886;2022-10-16T04:07:43;11.95;;;9.10;;
34072;SDS011;20346;52.702;16.886;2022-10-16T04:10:28;10.63;;;9.63;;
34072;SDS011;20346;52.702;16.886;2022-10-16T04:13:14;11.95;;;9.53;;
34072;SDS011;20346;52.702;16.886;2022-10-16T04:15:59;12.57;;;10.27;;
34072;SDS011;20346;52.702;16.886;2022-10-16T04:18:45;10.58;;;9.48;;
34072;SDS011;20346;52.702;16.886;2022-10-16T04:21:30;11.25;;;10.05;;
34072;SDS011;20346;52.702;16.886;2022-10-16T04:24:15;12.00;;;10.25;;
34072;SDS011;20346;52.702;16.886;2022-10-16T04:27:00;11.88;;;10.53;;
34072;SDS011;20346;52.702;16.886;2022-10-16T04:29:45;11.60;;;10.23;;
34072;SDS011;20346;52.702;16.886;2022-10-16T04:32:31;11.83;;;10.58;;
34072;SDS011;20346;52.702;16.886;2022-10-16T04:35:17;11.97;;;10.28;;
34072;SDS011;20346;52.702;16.886;2022-10-16T04:38:03;13.15;;;10.75;;
34072;SDS011;20346;52.702;16.886;2022-10-16T04:40:48;11.88;;;10.68;;
34072;SDS011;20346;52.702;16.886;2022-10-16T04:43:33;11.80;;;10.70;;
34072;SDS011;20346;52.702;16.886;2022-10-16T04:46:18;11.30;;;10.18;;
34072;SDS011;20346;52.702;16.886;2022-10-16T04:49:03;14.05;;;11.22;;
34072;SDS011;20346;52.702;16.886;2022-10-16T04:51:48;11.90;;;10.72;;
34072;SDS011;20346;52.702;16.886;2022-10-16T04:54:33;13.77;;;10.50;;
34072;SDS011;20346;52.702;16.886;2022-10-16T04:57:18;11.20;;;10.15;;
34072;SDS011;20346;52.702;16.886;2022-10-16T05:00:03;12.05;;;10.55;;
34072;SDS011;20346;52.702;16.886;2022-10-16T05:02:52;14.23;;;10.98;;
34072;SDS011;20346;52.702;16.886;2022-10-16T05:05:41;11.83;;;10.72;;
34072;SDS011;20346;52.702;16.886;2022-10-16T05:08:28;11.63;;;10.53;;
34072;SDS011;20346;52.702;16.886;2022-10-16T05:11:13;13.43;;;11.40;;
34072;SDS011;20346;52.702;16.886;2022-10-16T05:13:58;13.15;;;11.22;;
34072;SDS011;20346;52.702;16.886;2022-10-16T05:16:43;13.40;;;10.88;;
34072;SDS011;20346;52.702;16.886;2022-10-16T05:19:28;13.53;;;10.63;;
34072;SDS011;20346;52.702;16.886;2022-10-16T05:22:13;12.60;;;11.38;;
34072;SDS011;20346;52.702;16.886;2022-10-16T05:24:58;12.90;;;11.53;;
34072;SDS011;20346;52.702;16.886;2022-10-16T05:27:46;13.08;;;11.83;;
34072;SDS011;20346;52.702;16.886;2022-10-16T05:30:34;12.75;;;11.53;;
34072;SDS011;20346;52.702;16.886;2022-10-16T05:33:21;13.25;;;11.65;;
34072;SDS011;20346;52.702;16.886;2022-10-16T05:36:08;14.00;;;11.63;;
34072;SDS011;20346;52.702;16.886;2022-10-16T05:38:54;13.85;;;12.15;;
34072;SDS011;20346;52.702;16.886;2022-10-16T05:41:39;14.65;;;12.60;;
34072;SDS011;20346;52.702;16.886;2022-10-16T05:44:24;13.30;;;11.73;;
34072;SDS011;20346;52.702;16.886;2022-10-16T05:47:09;13.58;;;12.28;;
34072;SDS011;20346;52.702;16.886;2022-10-16T05:49:55;12.25;;;11.15;;
34072;SDS011;20346;52.702;16.886;2022-10-16T05:52:40;13.20;;;11.90;;
34072;SDS011;20346;52.702;16.886;2022-10-16T05:55:25;15.70;;;12.03;;
34072;SDS011;20346;52.702;16.886;2022-10-16T05:58:10;12.85;;;11.55;;
34072;SDS011;20346;52.702;16.886;2022-10-16T06:00:56;13.53;;;12.30;;
34072;SDS011;20346;52.702;16.886;2022-10-16T06:03:44;12.68;;;11.38;;
34072;SDS011;20346;52.702;16.886;2022-10-16T06:06:29;15.00;;;11.78;;
34072;SDS011;20346;52.702;16.886;2022-10-16T06:09:14;13.70;;;12.33;;
34072;SDS011;20346;52.702;16.886;2022-10-16T06:11:59;14.00;;;12.00;;
34072;SDS011;20346;52.702;16.886;2022-10-16T06:14:49;13.35;;;12.05;;
34072;SDS011;20346;52.702;16.886;2022-10-16T06:17:31;13.43;;;12.15;;
34072;SDS011;20346;52.702;16.886;2022-10-16T06:20:17;14.70;;;12.53;;
34072;SDS011;20346;52.702;16.886;2022-10-16T06:23:02;13.72;;;11.20;;
34072;SDS011;20346;52.702;16.886;2022-10-16T06:25:47;13.75;;;12.35;;
34072;SDS011;20346;52.702;16.886;2022-10-16T06:28:32;12.70;;;11.60;;
34072;SDS011;20346;52.702;16.886;2022-10-16T06:31:18;13.00;;;11.70;;
34072;SDS011;20346;52.702;16.886;2022-10-16T06:36:51;12.03;;;10.28;;
34072;SDS011;20346;52.702;16.886;2022-10-16T06:39:36;11.88;;;9.60;;
34072;SDS011;20346;52.702;16.886;2022-10-16T06:42:21;10.53;;;9.55;;
34072;SDS011;20346;52.702;16.886;2022-10-16T06:45:06;11.40;;;10.25;;
34072;SDS011;20346;52.702;16.886;2022-10-16T06:47:53;13.00;;;9.95;;
34072;SDS011;20346;52.702;16.886;2022-10-16T06:50:38;10.38;;;9.43;;
34072;SDS011;20346;52.702;16.886;2022-10-16T06:53:23;10.23;;;9.18;;
34072;SDS011;20346;52.702;16.886;2022-10-16T06:58:58;9.73;;;8.83;;
34072;SDS011;20346;52.702;16.886;2022-10-16T07:01:43;9.48;;;8.30;;
34072;SDS011;20346;52.702;16.886;2022-10-16T07:04:28;9.18;;;8.38;;
34072;SDS011;20346;52.702;16.886;2022-10-16T07:07:14;9.90;;;8.88;;
34072;SDS011;20346;52.702;16.886;2022-10-16T07:09:59;9.80;;;8.88;;
34072;SDS011;20346;52.702;16.886;2022-10-16T07:12:44;9.38;;;8.58;;
34072;SDS011;20346;52.702;16.886;2022-10-16T07:15:29;13.32;;;8.85;;
34072;SDS011;20346;52.702;16.886;2022-10-16T07:18:14;11.63;;;8.88;;
34072;SDS011;20346;52.702;16.886;2022-10-16T07:21:03;9.45;;;8.65;;
34072;SDS011;20346;52.702;16.886;2022-10-16T07:23:50;8.90;;;7.65;;
34072;SDS011;20346;52.702;16.886;2022-10-16T07:26:37;8.43;;;7.60;;
34072;SDS011;20346;52.702;16.886;2022-10-16T07:29:23;8.15;;;7.45;;
34072;SDS011;20346;52.702;16.886;2022-10-16T07:32:09;8.33;;;7.58;;
34072;SDS011;20346;52.702;16.886;2022-10-16T07:34:54;8.38;;;7.67;;
34072;SDS011;20346;52.702;16.886;2022-10-16T07:37:39;8.70;;;7.65;;
34072;SDS011;20346;52.702;16.886;2022-10-16T07:40:27;8.58;;;7.80;;
34072;SDS011;20346;52.702;16.886;2022-10-16T07:43:14;8.03;;;7.33;;
34072;SDS011;20346;52.702;16.886;2022-10-16T07:45:59;9.98;;;7.75;;
34072;SDS011;20346;52.702;16.886;2022-10-16T07:48:44;10.48;;;7.70;;
34072;SDS011;20346;52.702;16.886;2022-10-16T07:51:31;7.20;;;6.62;;
34072;SDS011;20346;52.702;16.886;2022-10-16T07:54:16;7.78;;;7.10;;
34072;SDS011;20346;52.702;16.886;2022-10-16T07:57:01;8.18;;;7.45;;
34072;SDS011;20346;52.702;16.886;2022-10-16T07:59:46;10.28;;;7.25;;
34072;SDS011;20346;52.702;16.886;2022-10-16T08:02:31;11.90;;;8.48;;
34072;SDS011;20346;52.702;16.886;2022-10-16T08:05:16;8.98;;;8.08;;
34072;SDS011;20346;52.702;16.886;2022-10-16T08:08:01;8.60;;;7.83;;
34072;SDS011;20346;52.702;16.886;2022-10-16T08:10:47;11.18;;;8.65;;
34072;SDS011;20346;52.702;16.886;2022-10-16T08:13:32;8.93;;;8.13;;
34072;SDS011;20346;52.702;16.886;2022-10-16T08:16:17;9.45;;;8.48;;
34072;SDS011;20346;52.702;16.886;2022-10-16T08:19:02;8.35;;;7.15;;
34072;SDS011;20346;52.702;16.886;2022-10-16T08:21:47;8.85;;;8.03;;
34072;SDS011;20346;52.702;16.886;2022-10-16T08:24:32;7.85;;;7.25;;
34072;SDS011;20346;52.702;16.886;2022-10-16T08:27:18;9.53;;;8.33;;
34072;SDS011;20346;52.702;16.886;2022-10-16T08:30:03;8.75;;;8.05;;
34072;SDS011;20346;52.702;16.886;2022-10-16T08:32:50;7.85;;;7.05;;
34072;SDS011;20346;52.702;16.886;2022-10-16T08:35:35;10.82;;;7.70;;
34072;SDS011;20346;52.702;16.886;2022-10-16T08:38:20;7.80;;;7.00;;
34072;SDS011;20346;52.702;16.886;2022-10-16T08:44:35;8.50;;;7.78;;
34072;SDS011;20346;52.702;16.886;2022-10-16T08:50:42;7.83;;;7.22;;
34072;SDS011;20346;52.702;16.886;2022-10-16T08:53:31;7.37;;;6.72;;
34072;SDS011;20346;52.702;16.886;2022-10-16T08:56:32;8.53;;;7.72;;
34072;SDS011;20346;52.702;16.886;2022-10-16T08:59:17;9.85;;;7.05;;
34072;SDS011;20346;52.702;16.886;2022-10-16T09:02:08;8.05;;;7.30;;
34072;SDS011;20346;52.702;16.886;2022-10-16T09:05:10;7.70;;;7.10;;
34072;SDS011;20346;52.702;16.886;2022-10-16T09:08:09;7.50;;;7.00;;
34072;SDS011;20346;52.702;16.886;2022-10-16T09:20:58;6.65;;;6.03;;
34072;SDS011;20346;52.702;16.886;2022-10-16T09:24:17;7.40;;;6.80;;
34072;SDS011;20346;52.702;16.886;2022-10-16T09:26:59;7.70;;;7.00;;
34072;SDS011;20346;52.702;16.886;2022-10-16T09:29:44;7.03;;;6.42;;
34072;SDS011;20346;52.702;16.886;2022-10-16T09:32:29;9.40;;;6.15;;
34072;SDS011;20346;52.702;16.886;2022-10-16T09:35:18;6.72;;;6.22;;
34072;SDS011;20346;52.702;16.886;2022-10-16T09:38:07;5.80;;;5.40;;
34072;SDS011;20346;52.702;16.886;2022-10-16T09:40:52;6.22;;;5.62;;
34072;SDS011;20346;52.702;16.886;2022-10-16T09:46:28;6.40;;;5.83;;
34072;SDS011;20346;52.702;16.886;2022-10-16T09:52:12;6.92;;;5.08;;
34072;SDS011;20346;52.702;16.886;2022-10-16T09:54:59;5.47;;;4.97;;
34072;SDS011;20346;52.702;16.886;2022-10-16T09:57:57;7.03;;;5.45;;
34072;SDS011;20346;52.702;16.886;2022-10-16T10:00:48;6.28;;;5.55;;
34072;SDS011;20346;52.702;16.886;2022-10-16T10:03:39;6.60;;;6.00;;
34072;SDS011;20346;52.702;16.886;2022-10-16T10:06:28;6.30;;;5.80;;
34072;SDS011;20346;52.702;16.886;2022-10-16T10:09:23;5.92;;;5.47;;
34072;SDS011;20346;52.702;16.886;2022-10-16T10:12:22;5.90;;;5.45;;
34072;SDS011;20346;52.702;16.886;2022-10-16T10:15:12;5.53;;;5.08;;
34072;SDS011;20346;52.702;16.886;2022-10-16T10:18:02;6.10;;;5.05;;
34072;SDS011;20346;52.702;16.886;2022-10-16T10:21:02;5.22;;;4.58;;
34072;SDS011;20346;52.702;16.886;2022-10-16T10:23:54;7.45;;;4.37;;
34072;SDS011;20346;52.702;16.886;2022-10-16T10:27:04;6.70;;;5.08;;
34072;SDS011;20346;52.702;16.886;2022-10-16T10:30:20;8.23;;;4.42;;
34072;SDS011;20346;52.702;16.886;2022-10-16T10:38:51;4.67;;;4.00;;
34072;SDS011;20346;52.702;16.886;2022-10-16T10:42:08;5.70;;;3.60;;
34072;SDS011;20346;52.702;16.886;2022-10-16T10:48:14;4.17;;;2.67;;
34072;SDS011;20346;52.702;16.886;2022-10-16T10:51:13;5.78;;;3.33;;
34072;SDS011;20346;52.702;16.886;2022-10-16T10:54:21;3.15;;;2.83;;
34072;SDS011;20346;52.702;16.886;2022-10-16T10:57:19;6.28;;;2.80;;
34072;SDS011;20346;52.702;16.886;2022-10-16T11:03:27;4.40;;;3.10;;
34072;SDS011;20346;52.702;16.886;2022-10-16T11:06:18;4.42;;;4.10;;
34072;SDS011;20346;52.702;16.886;2022-10-16T11:09:27;5.33;;;3.77;;
34072;SDS011;20346;52.702;16.886;2022-10-16T11:12:26;5.03;;;3.90;;
34072;SDS011;20346;52.702;16.886;2022-10-16T11:15:25;3.87;;;3.58;;
34072;SDS011;20346;52.702;16.886;2022-10-16T11:18:18;4.10;;;3.70;;
34072;SDS011;20346;52.702;16.886;2022-10-16T11:21:19;3.77;;;3.40;;
34072;SDS011;20346;52.702;16.886;2022-10-16T11:24:14;4.83;;;4.42;;
34072;SDS011;20346;52.702;16.886;2022-10-16T11:27:19;3.92;;;3.62;;
34072;SDS011;20346;52.702;16.886;2022-10-16T11:30:24;4.75;;;3.80;;
34072;SDS011;20346;52.702;16.886;2022-10-16T11:33:20;4.60;;;3.75;;
34072;SDS011;20346;52.702;16.886;2022-10-16T11:39:26;4.30;;;4.00;;
34072;SDS011;20346;52.702;16.886;2022-10-16T11:42:16;3.83;;;3.47;;
34072;SDS011;20346;52.702;16.886;2022-10-16T11:51:11;4.40;;;3.35;;
34072;SDS011;20346;52.702;16.886;2022-10-16T11:57:29;3.83;;;3.30;;
34072;SDS011;20346;52.702;16.886;2022-10-16T12:00:22;3.80;;;3.50;;
34072;SDS011;20346;52.702;16.886;2022-10-16T12:03:23;3.22;;;3.02;;
34072;SDS011;20346;52.702;16.886;2022-10-16T12:09:29;3.98;;;2.95;;
34072;SDS011;20346;52.702;16.886;2022-10-16T12:12:27;3.30;;;2.90;;
34072;SDS011;20346;52.702;16.886;2022-10-16T12:15:25;3.45;;;3.20;;
34072;SDS011;20346;52.702;16.886;2022-10-16T12:18:26;3.60;;;3.30;;
34072;SDS011;20346;52.702;16.886;2022-10-16T12:21:09;16.90;;;13.75;;
34072;SDS011;20346;52.702;16.886;2022-10-16T12:23:58;14.05;;;11.65;;
34072;SDS011;20346;52.702;16.886;2022-10-16T12:26:44;73.02;;;44.93;;
34072;SDS011;20346;52.702;16.886;2022-10-16T12:29:35;40.03;;;26.62;;
34072;SDS011;20346;52.702;16.886;2022-10-16T12:35:26;49.65;;;34.05;;
34072;SDS011;20346;52.702;16.886;2022-10-16T12:38:15;10.95;;;8.93;;
34072;SDS011;20346;52.702;16.886;2022-10-16T12:41:05;11.63;;;5.45;;
34072;SDS011;20346;52.702;16.886;2022-10-16T12:43:52;3.95;;;3.42;;
34072;SDS011;20346;52.702;16.886;2022-10-16T12:46:38;6.50;;;5.42;;
34072;SDS011;20346;52.702;16.886;2022-10-16T12:49:31;5.03;;;2.87;;
34072;SDS011;20346;52.702;16.886;2022-10-16T12:53:22;3.70;;;2.70;;
34072;SDS011;20346;52.702;16.886;2022-10-16T12:55:22;5.67;;;2.60;;
34072;SDS011;20346;52.702;16.886;2022-10-16T12:58:24;5.62;;;3.30;;
34072;SDS011;20346;52.702;16.886;2022-10-16T13:01:26;9.08;;;7.47;;
34072;SDS011;20346;52.702;16.886;2022-10-16T13:08:02;12.40;;;10.75;;
34072;SDS011;20346;52.702;16.886;2022-10-16T13:10:55;10.85;;;9.10;;
34072;SDS011;20346;52.702;16.886;2022-10-16T13:17:03;9.80;;;5.92;;
34072;SDS011;20346;52.702;16.886;2022-10-16T13:23:29;4.42;;;4.03;;
34072;SDS011;20346;52.702;16.886;2022-10-16T13:29:16;2.30;;;2.20;;
34072;SDS011;20346;52.702;16.886;2022-10-16T13:32:01;4.05;;;2.45;;
34072;SDS011;20346;52.702;16.886;2022-10-16T13:34:53;2.98;;;2.70;;
34072;SDS011;20346;52.702;16.886;2022-10-16T13:37:39;6.28;;;2.15;;
34072;SDS011;20346;52.702;16.886;2022-10-16T13:40:24;4.42;;;2.77;;
34072;SDS011;20346;52.702;16.886;2022-10-16T13:43:09;2.30;;;2.05;;
34072;SDS011;20346;52.702;16.886;2022-10-16T13:46:02;2.60;;;2.20;;
34072;SDS011;20346;52.702;16.886;2022-10-16T13:49:13;2.17;;;1.98;;
34072;SDS011;20346;52.702;16.886;2022-10-16T13:51:58;4.30;;;1.60;;
34072;SDS011;20346;52.702;16.886;2022-10-16T13:54:39;2.80;;;1.52;;
34072;SDS011;20346;52.702;16.886;2022-10-16T13:57:24;2.42;;;1.22;;
34072;SDS011;20346;52.702;16.886;2022-10-16T14:00:25;3.47;;;1.60;;
34072;SDS011;20346;52.702;16.886;2022-10-16T14:03:15;3.45;;;1.50;;
34072;SDS011;20346;52.702;16.886;2022-10-16T14:06:02;2.02;;;1.22;;
34072;SDS011;20346;52.702;16.886;2022-10-16T14:12:10;3.62;;;1.20;;
34072;SDS011;20346;52.702;16.886;2022-10-16T14:14:57;1.32;;;1.20;;
34072;SDS011;20346;52.702;16.886;2022-10-16T14:17:45;1.10;;;1.00;;
34072;SDS011;20346;52.702;16.886;2022-10-16T14:20:33;2.12;;;1.20;;
34072;SDS011;20346;52.702;16.886;2022-10-16T14:23:20;1.93;;;1.20;;
34072;SDS011;20346;52.702;16.886;2022-10-16T14:26:19;1.07;;;0.82;;
34072;SDS011;20346;52.702;16.886;2022-10-16T14:29:14;3.47;;;1.10;;
34072;SDS011;20346;52.702;16.886;2022-10-16T14:32:04;3.17;;;1.30;;
34072;SDS011;20346;52.702;16.886;2022-10-16T14:34:55;1.22;;;1.17;;
34072;SDS011;20346;52.702;16.886;2022-10-16T14:37:40;1.37;;;1.27;;
34072;SDS011;20346;52.702;16.886;2022-10-16T14:40:26;2.95;;;1.40;;
34072;SDS011;20346;52.702;16.886;2022-10-16T14:43:17;1.20;;;1.10;;
34072;SDS011;20346;52.702;16.886;2022-10-16T14:46:11;1.20;;;1.10;;
34072;SDS011;20346;52.702;16.886;2022-10-16T14:48:58;2.95;;;1.20;;
34072;SDS011;20346;52.702;16.886;2022-10-16T14:51:45;0.75;;;0.72;;
34072;SDS011;20346;52.702;16.886;2022-10-16T14:54:31;1.95;;;1.22;;
34072;SDS011;20346;52.702;16.886;2022-10-16T14:57:17;3.12;;;1.20;;
34072;SDS011;20346;52.702;16.886;2022-10-16T15:00:18;1.92;;;1.00;;
34072;SDS011;20346;52.702;16.886;2022-10-16T15:03:03;1.85;;;1.02;;
34072;SDS011;20346;52.702;16.886;2022-10-16T15:05:49;4.30;;;1.25;;
34072;SDS011;20346;52.702;16.886;2022-10-16T15:08:33;1.07;;;0.95;;
34072;SDS011;20346;52.702;16.886;2022-10-16T15:11:19;1.37;;;1.10;;
34072;SDS011;20346;52.702;16.886;2022-10-16T15:14:04;1.40;;;1.30;;
34072;SDS011;20346;52.702;16.886;2022-10-16T15:16:50;1.40;;;1.30;;
34072;SDS011;20346;52.702;16.886;2022-10-16T15:19:35;1.50;;;1.27;;
34072;SDS011;20346;52.702;16.886;2022-10-16T15:22:20;1.30;;;1.20;;
34072;SDS011;20346;52.702;16.886;2022-10-16T15:28:30;1.60;;;1.40;;
34072;SDS011;20346;52.702;16.886;2022-10-16T15:31:15;1.95;;;1.20;;
34072;SDS011;20346;52.702;16.886;2022-10-16T15:34:00;4.15;;;1.20;;
34072;SDS011;20346;52.702;16.886;2022-10-16T15:36:49;1.57;;;1.00;;
34072;SDS011;20346;52.702;16.886;2022-10-16T15:39:35;5.75;;;1.17;;
34072;SDS011;20346;52.702;16.886;2022-10-16T15:42:20;1.92;;;1.30;;
34072;SDS011;20346;52.702;16.886;2022-10-16T15:45:06;1.50;;;1.20;;
34072;SDS011;20346;52.702;16.886;2022-10-16T15:47:53;1.40;;;1.30;;
34072;SDS011;20346;52.702;16.886;2022-10-16T15:50:38;3.42;;;1.35;;
34072;SDS011;20346;52.702;16.886;2022-10-16T15:53:24;1.05;;;1.02;;
34072;SDS011;20346;52.702;16.886;2022-10-16T15:56:10;2.50;;;1.45;;
34072;SDS011;20346;52.702;16.886;2022-10-16T15:58:55;1.80;;;1.30;;
34072;SDS011;20346;52.702;16.886;2022-10-16T16:04:29;2.72;;;1.27;;
34072;SDS011;20346;52.702;16.886;2022-10-16T16:07:16;4.30;;;1.55;;
34072;SDS011;20346;52.702;16.886;2022-10-16T16:10:02;4.07;;;1.50;;
34072;SDS011;20346;52.702;16.886;2022-10-16T16:12:50;2.17;;;1.57;;
34072;SDS011;20346;52.702;16.886;2022-10-16T16:15:39;3.65;;;1.85;;
34072;SDS011;20346;52.702;16.886;2022-10-16T16:18:25;4.78;;;2.33;;
34072;SDS011;20346;52.702;16.886;2022-10-16T16:21:10;3.30;;;1.75;;
34072;SDS011;20346;52.702;16.886;2022-10-16T16:23:56;4.00;;;1.45;;
34072;SDS011;20346;52.702;16.886;2022-10-16T16:26:41;3.83;;;1.90;;
34072;SDS011;20346;52.702;16.886;2022-10-16T16:29:29;4.00;;;1.80;;
34072;SDS011;20346;52.702;16.886;2022-10-16T16:32:15;1.60;;;1.50;;
34072;SDS011;20346;52.702;16.886;2022-10-16T16:35:00;1.95;;;1.70;;
34072;SDS011;20346;52.702;16.886;2022-10-16T16:37:46;8.00;;;1.70;;
34072;SDS011;20346;52.702;16.886;2022-10-16T16:40:31;2.10;;;1.52;;
34072;SDS011;20346;52.702;16.886;2022-10-16T16:43:16;1.67;;;1.47;;
34072;SDS011;20346;52.702;16.886;2022-10-16T16:46:01;1.62;;;1.40;;
34072;SDS011;20346;52.702;16.886;2022-10-16T16:48:47;1.52;;;1.42;;
34072;SDS011;20346;52.702;16.886;2022-10-16T16:51:34;4.70;;;1.82;;
34072;SDS011;20346;52.702;16.886;2022-10-16T16:54:19;2.52;;;1.40;;
34072;SDS011;20346;52.702;16.886;2022-10-16T16:57:04;2.77;;;1.50;;
34072;SDS011;20346;52.702;16.886;2022-10-16T16:59:50;6.87;;;1.62;;
34072;SDS011;20346;52.702;16.886;2022-10-16T17:02:36;5.53;;;2.10;;
34072;SDS011;20346;52.702;16.886;2022-10-16T17:05:21;5.55;;;1.52;;
34072;SDS011;20346;52.702;16.886;2022-10-16T17:08:06;3.67;;;1.47;;
34072;SDS011;20346;52.702;16.886;2022-10-16T17:13:38;2.90;;;1.50;;
34072;SDS011;20346;52.702;16.886;2022-10-16T17:16:25;2.20;;;1.87;;
34072;SDS011;20346;52.702;16.886;2022-10-16T17:19:14;1.85;;;1.45;;
34072;SDS011;20346;52.702;16.886;2022-10-16T17:22:02;2.80;;;1.40;;
34072;SDS011;20346;52.702;16.886;2022-10-16T17:24:50;6.15;;;2.27;;
34072;SDS011;20346;52.702;16.886;2022-10-16T17:27:35;3.02;;;2.80;;
34072;SDS011;20346;52.702;16.886;2022-10-16T17:30:20;3.10;;;2.20;;
34072;SDS011;20346;52.702;16.886;2022-10-16T17:33:09;3.47;;;2.40;;
34072;SDS011;20346;52.702;16.886;2022-10-16T17:35:55;3.35;;;2.60;;
34072;SDS011;20346;52.702;16.886;2022-10-16T17:38:43;3.67;;;2.30;;
34072;SDS011;20346;52.702;16.886;2022-10-16T17:41:28;2.27;;;2.08;;
34072;SDS011;20346;52.702;16.886;2022-10-16T17:44:14;5.12;;;2.30;;
34072;SDS011;20346;52.702;16.886;2022-10-16T17:47:02;4.45;;;2.50;;
34072;SDS011;20346;52.702;16.886;2022-10-16T17:49:47;2.55;;;2.35;;
34072;SDS011;20346;52.702;16.886;2022-10-16T17:52:33;4.08;;;2.58;;
34072;SDS011;20346;52.702;16.886;2022-10-16T17:55:18;2.58;;;2.37;;
34072;SDS011;20346;52.702;16.886;2022-10-16T17:58:03;3.27;;;2.62;;
34072;SDS011;20346;52.702;16.886;2022-10-16T18:00:48;7.70;;;3.12;;
34072;SDS011;20346;52.702;16.886;2022-10-16T18:03:33;3.62;;;3.20;;
34072;SDS011;20346;52.702;16.886;2022-10-16T18:06:18;5.05;;;3.27;;
34072;SDS011;20346;52.702;16.886;2022-10-16T18:09:04;2.67;;;2.47;;
34072;SDS011;20346;52.702;16.886;2022-10-16T18:11:50;4.28;;;2.83;;